Time;durP1;ratioP1;P1;durP2;ratioP2;P2;SDS_P1;SDS_P2;PMS_P1;PMS_P2;Temp;Humidity;BMP_temperature;BMP_pressure;BME280_temperature;BME280_humidity;BME280_pressure;Samples;Min_cycle;Max_cycle;Signal;HPM_P1;HPM_P2
2022/05/10 00:01:05;;;;;;;2.92;1.40;;;;;;;4.99;100.00;101596.37;1807087;79;20955;-87
2022/05/10 00:03:35;;;;;;;3.65;1.60;;;;;;;4.94;100.00;101593.45;1806843;79;21227;-87
2022/05/10 00:06:04;;;;;;;4.50;1.60;;;;;;;4.91;100.00;101596.04;1740129;81;21313;-87
2022/05/10 00:08:30;;;;;;;6.03;1.50;;;;;;;4.89;100.00;101599.92;1740023;82;21186;-87
2022/05/10 00:10:56;;;;;;;6.03;1.70;;;;;;;4.86;100.00;101601.14;1736196;82;21471;-88
2022/05/10 00:13:25;;;;;;;7.20;1.37;;;;;;;4.85;100.00;101598.14;1740020;82;20967;-88
2022/05/10 00:15:51;;;;;;;8.03;1.75;;;;;;;4.84;100.00;101598.35;1740300;82;20932;-87
2022/05/10 00:18:20;;;;;;;4.65;1.50;;;;;;;4.75;100.00;101592.34;1740336;82;21135;-87
2022/05/10 00:20:47;;;;;;;3.65;1.65;;;;;;;4.68;100.00;101594.98;1739976;80;21412;-87
2022/05/10 00:23:14;;;;;;;6.20;1.92;;;;;;;4.65;100.00;101589.21;1740237;82;21018;-87
2022/05/10 00:25:41;;;;;;;4.30;2.20;;;;;;;4.61;100.00;101589.27;1715550;82;21034;-87
2022/05/10 00:28:08;;;;;;;7.35;1.92;;;;;;;4.55;100.00;101593.03;1739990;82;21038;-87
2022/05/10 00:30:34;;;;;;;4.33;1.82;;;;;;;4.49;100.00;101592.48;1740210;82;21650;-87
2022/05/10 00:33:00;;;;;;;3.70;1.70;;;;;;;4.43;100.00;101595.11;1740133;82;21012;-88
2022/05/10 00:35:30;;;;;;;5.42;1.70;;;;;;;4.36;100.00;101592.91;1740089;82;20954;-87
2022/05/10 00:37:59;;;;;;;6.15;1.75;;;;;;;4.29;100.00;101590.17;1740245;82;21034;-87
2022/05/10 00:40:31;;;;;;;6.53;1.90;;;;;;;4.26;100.00;101587.89;1740320;82;20982;-87
2022/05/10 00:43:38;;;;;;;4.70;1.82;;;;;;;4.19;100.00;101588.36;1740114;82;21312;-87
2022/05/10 00:46:26;;;;;;;3.45;1.90;;;;;;;4.12;100.00;101590.13;1740140;82;21054;-86
2022/05/10 00:49:09;;;;;;;3.20;1.65;;;;;;;4.05;100.00;101593.56;1751621;81;20988;-88
2022/05/10 00:52:05;;;;;;;3.77;1.82;;;;;;;3.96;100.00;101589.90;1745542;81;21043;-87
2022/05/10 00:55:05;;;;;;;6.83;1.82;;;;;;;3.89;100.00;101590.36;1750175;81;21537;-88
2022/05/10 00:57:43;;;;;;;6.42;1.95;;;;;;;3.79;100.00;101596.80;1738826;81;21194;-87
2022/05/10 01:00:14;;;;;;;4.58;2.10;;;;;;;3.81;100.00;101598.78;1727837;83;21518;-87
2022/05/10 01:02:54;;;;;;;4.45;1.80;;;;;;;3.89;100.00;101602.36;1739132;81;21532;-87
2022/05/10 01:05:44;;;;;;;4.17;1.60;;;;;;;3.92;100.00;101596.13;1756697;81;21038;-88
2022/05/10 01:08:37;;;;;;;4.03;1.82;;;;;;;3.97;100.00;101596.88;1756539;81;21159;-87
2022/05/10 01:11:23;;;;;;;4.37;2.27;;;;;;;3.97;100.00;101587.54;1757286;81;21180;-87
2022/05/10 01:13:55;;;;;;;3.85;2.00;;;;;;;3.96;100.00;101597.90;1681257;84;21539;-88
2022/05/10 01:16:23;;;;;;;4.15;1.80;;;;;;;4.04;100.00;101595.92;1678251;85;20995;-88
2022/05/10 01:18:52;;;;;;;11.50;1.65;;;;;;;4.08;100.00;101601.18;1646587;85;21114;-87
2022/05/10 01:21:44;;;;;;;3.52;1.57;;;;;;;4.09;100.00;101599.37;1681212;85;20964;-87
2022/05/10 01:24:41;;;;;;;5.03;1.98;;;;;;;4.08;100.00;101601.18;1681352;84;21349;-88
2022/05/10 01:27:40;;;;;;;4.83;1.75;;;;;;;4.02;100.00;101597.95;1733853;82;21047;-87
2022/05/10 01:30:20;;;;;;;3.08;1.50;;;;;;;3.99;100.00;101601.52;1684359;85;21042;-86
2022/05/10 01:36:08;;;;;;;5.37;1.92;;;;;;;3.94;100.00;101599.44;1683814;85;21059;-88
2022/05/10 01:39:03;;;;;;;7.65;2.12;;;;;;;3.94;100.00;101597.25;1684431;85;21159;-87
2022/05/10 01:41:52;;;;;;;3.80;1.60;;;;;;;3.95;100.00;101597.08;1684255;85;21059;-88
2022/05/10 01:44:44;;;;;;;5.42;1.98;;;;;;;3.92;100.00;101600.13;1683485;84;21102;-87
2022/05/10 01:47:31;;;;;;;3.47;1.62;;;;;;;3.84;100.00;101597.58;1679219;85;21443;-87
2022/05/10 01:50:20;;;;;;;3.70;1.82;;;;;;;3.72;100.00;101593.27;1685487;83;21451;-87
2022/05/10 01:53:06;;;;;;;4.87;1.60;;;;;;;3.67;100.00;101600.99;1722474;83;21154;-87
2022/05/10 01:55:42;;;;;;;3.80;1.70;;;;;;;3.59;100.00;101600.63;1720832;83;20909;-87
2022/05/10 01:58:24;;;;;;;4.83;2.02;;;;;;;3.49;100.00;101597.93;1735437;82;21042;-87
2022/05/10 02:01:01;;;;;;;6.35;1.95;;;;;;;3.38;100.00;101600.09;1712886;83;21647;-86
2022/05/10 02:04:04;;;;;;;5.30;1.92;;;;;;;3.30;100.00;101599.37;1713041;83;21008;-87
2022/05/10 02:06:57;;;;;;;9.03;1.70;;;;;;;3.25;100.00;101602.58;1743208;80;21733;-87
2022/05/10 02:09:40;;;;;;;4.62;1.77;;;;;;;3.20;100.00;101595.64;1753092;81;21038;-86
2022/05/10 02:12:19;;;;;;;;;;;;;;;3.16;100.00;101602.37;1752825;81;20991;-86
2022/05/10 02:15:01;;;;;;;9.68;2.27;;;;;;;3.08;100.00;101601.95;1680331;84;20171;-86
2022/05/10 02:17:38;;;;;;;4.20;1.98;;;;;;;3.04;100.00;101601.19;1681027;84;21571;-86
2022/05/10 02:20:09;;;;;;;5.87;2.02;;;;;;;2.99;100.00;101611.05;1670988;84;21142;-85
2022/05/10 02:22:54;;;;;;;3.27;1.75;;;;;;;2.97;100.00;101603.74;1664818;86;21035;-86
2022/05/10 02:25:32;;;;;;;5.05;1.70;;;;;;;2.91;100.00;101612.47;1667923;86;21082;-86
2022/05/10 02:28:24;;;;;;;4.62;2.00;;;;;;;2.89;100.00;101610.00;1561438;89;21667;-85
2022/05/10 02:30:54;;;;;;;8.20;2.00;;;;;;;2.90;100.00;101612.16;1509573;95;21093;-86
2022/05/10 02:33:21;;;;;;;4.97;2.30;;;;;;;2.95;100.00;101610.59;1510505;95;21170;-85
2022/05/10 02:35:55;;;;;;;5.10;2.30;;;;;;;2.99;100.00;101611.56;1510474;95;20938;-85
2022/05/10 02:38:35;;;;;;;5.83;2.17;;;;;;;3.02;100.00;101612.52;1481605;96;21098;-86
2022/05/10 02:41:06;;;;;;;5.80;2.00;;;;;;;3.11;100.00;101620.22;1497602;95;21510;-86
2022/05/10 02:43:40;;;;;;;5.67;2.25;;;;;;;3.21;100.00;101623.09;1497705;95;21687;-85
2022/05/10 02:46:06;;;;;;;5.75;2.30;;;;;;;3.29;100.00;101618.50;1451968;98;21177;-86
2022/05/10 02:48:35;;;;;;;9.43;2.30;;;;;;;3.34;100.00;101623.28;1451933;98;21168;-86
2022/05/10 02:51:02;;;;;;;7.92;2.08;;;;;;;3.44;100.00;101624.30;1451990;98;21152;-86
2022/05/10 02:53:29;;;;;;;9.28;2.27;;;;;;;3.56;100.00;101628.13;1452108;98;21113;-85
2022/05/10 02:56:09;;;;;;;7.25;2.20;;;;;;;3.62;100.00;101628.23;1452279;98;21138;-86
2022/05/10 02:58:48;;;;;;;6.92;2.45;;;;;;;3.70;100.00;101626.45;1453029;98;22202;-86
2022/05/10 03:01:45;;;;;;;7.33;2.40;;;;;;;3.82;100.00;101632.93;1433631;98;21171;-87
2022/05/10 03:04:12;;;;;;;5.53;2.15;;;;;;;3.94;100.00;101629.25;1408088;101;21038;-86
2022/05/10 03:06:41;;;;;;;4.97;2.15;;;;;;;4.09;100.00;101622.03;1461558;98;21070;-85
2022/05/10 03:09:08;;;;;;;6.40;2.47;;;;;;;4.30;100.00;101629.19;1436994;98;21125;-86
2022/05/10 03:11:35;;;;;;;14.43;2.70;;;;;;;4.52;100.00;101629.45;1465056;97;21212;-86
2022/05/10 03:14:02;;;;;;;8.63;2.35;;;;;;;4.75;100.00;101631.06;1465524;97;21140;-86
2022/05/10 03:16:29;;;;;;;5.47;2.30;;;;;;;4.96;100.00;101636.83;1492560;93;21041;-85
2022/05/10 03:18:55;;;;;;;9.25;2.83;;;;;;;5.19;100.00;101636.55;1522751;94;21097;-86
2022/05/10 03:21:22;;;;;;;8.58;2.62;;;;;;;5.68;100.00;101635.52;1522718;94;21577;-86
2022/05/10 03:23:50;;;;;;;10.70;2.45;;;;;;;6.42;100.00;101629.77;1522835;94;22923;-86
2022/05/10 03:26:21;;;;;;;8.13;2.37;;;;;;;7.10;100.00;101632.12;1529366;92;21119;-87
2022/05/10 03:28:47;;;;;;;12.30;2.80;;;;;;;7.78;100.00;101628.94;1543468;92;21175;-86
2022/05/10 03:31:17;;;;;;;6.97;2.45;;;;;;;8.42;100.00;101637.28;1546224;92;20949;-87
2022/05/10 03:33:44;;;;;;;6.65;2.62;;;;;;;8.79;100.00;101636.82;1546055;92;21086;-87
2022/05/10 03:36:11;;;;;;;5.42;2.55;;;;;;;9.08;100.00;101637.97;1605862;82;21113;-88
2022/05/10 03:38:37;;;;;;;4.12;2.00;;;;;;;10.21;100.00;101635.11;1736728;82;20999;-88
2022/05/10 03:41:04;;;;;;;12.35;2.33;;;;;;;11.62;100.00;101634.18;1765393;79;20892;-88
2022/05/10 03:43:30;;;;;;;4.62;2.30;;;;;;;12.85;100.00;101633.50;1817975;78;20996;-87
2022/05/10 03:45:56;;;;;;;7.08;2.00;;;;;;;14.00;100.00;101636.22;1818160;78;20979;-88
2022/05/10 03:48:21;;;;;;;3.72;1.70;;;;;;;14.99;100.00;101631.55;1818182;78;21037;-87
2022/05/10 03:50:47;;;;;;;8.73;1.95;;;;;;;16.02;94.85;101637.33;1817864;79;20865;-87
2022/05/10 03:53:13;;;;;;;4.30;1.87;;;;;;;16.97;83.39;101636.70;1817989;79;21419;-87
2022/05/10 03:55:39;;;;;;;11.03;2.60;;;;;;;17.81;70.29;101637.70;1817705;77;20920;-88
2022/05/10 03:58:06;;;;;;;17.60;2.67;;;;;;;18.45;59.61;101643.22;1813187;79;21385;-88
2022/05/10 04:00:32;;;;;;;6.65;2.58;;;;;;;18.90;55.69;101641.97;1806865;78;21043;-88
2022/05/10 04:02:59;;;;;;;7.22;2.77;;;;;;;19.47;51.99;101635.25;1807106;79;20993;-87
2022/05/10 04:05:27;;;;;;;6.28;2.20;;;;;;;20.03;49.55;101635.84;1806846;78;21441;-87
2022/05/10 04:07:53;;;;;;;6.70;2.33;;;;;;;20.64;47.09;101643.02;1806429;79;21020;-89
2022/05/10 04:10:22;;;;;;;6.33;2.62;;;;;;;21.30;44.53;101635.99;1822650;78;21008;-89
2022/05/10 04:12:48;;;;;;;6.72;2.25;;;;;;;21.74;42.05;101628.45;1806894;79;21911;-89
2022/05/10 04:15:17;;;;;;;4.60;2.33;;;;;;;22.51;41.46;101636.76;1806774;79;20957;-88
2022/05/10 04:17:43;;;;;;;8.00;2.20;;;;;;;23.21;40.27;101639.25;1806866;78;20969;-88
2022/05/10 04:20:13;;;;;;;4.92;2.60;;;;;;;23.83;38.79;101632.14;1806846;78;20988;-89
2022/05/10 04:22:39;;;;;;;4.17;2.58;;;;;;;24.21;36.94;101631.45;1806965;78;21165;-89
2022/05/10 04:25:07;;;;;;;5.33;2.65;;;;;;;24.77;36.46;101629.53;1806823;78;21940;-89
2022/05/10 04:27:33;;;;;;;5.78;2.58;;;;;;;25.22;34.67;101629.56;1797626;79;20999;-89
2022/05/10 04:29:59;;;;;;;8.23;2.75;;;;;;;25.77;34.13;101627.14;1806819;79;21512;-88
2022/05/10 04:32:25;;;;;;;10.88;2.77;;;;;;;26.13;32.24;101627.08;1792813;79;20824;-88
2022/05/10 04:34:51;;;;;;;6.58;2.30;;;;;;;26.12;31.40;101630.42;1792832;80;21077;-89
2022/05/10 04:37:17;;;;;;;4.12;2.50;;;;;;;25.18;29.86;101635.50;1766641;78;20991;-89
2022/05/10 04:42:27;;;;;;;5.83;2.37;;;;;;;25.16;29.19;101633.09;1792797;80;20947;-87
2022/05/10 04:44:53;;;;;;;6.97;2.40;;;;;;;24.65;28.83;101631.60;1793014;80;21577;-88
2022/05/10 04:47:19;;;;;;;5.33;2.22;;;;;;;24.66;28.79;101637.34;1766581;80;20836;-89
2022/05/10 04:49:45;;;;;;;7.45;2.30;;;;;;;25.09;29.71;101636.89;1792742;80;21952;-89
2022/05/10 04:52:11;;;;;;;4.40;2.10;;;;;;;25.77;28.40;101639.56;1793003;80;20860;-89
2022/05/10 04:54:39;;;;;;;4.17;2.08;;;;;;;25.98;27.89;101636.23;1792738;80;21053;-88
2022/05/10 04:57:07;;;;;;;4.40;2.30;;;;;;;26.60;27.67;101634.47;1800076;79;21008;-88
2022/05/10 04:59:33;;;;;;;6.85;2.25;;;;;;;27.04;27.41;101634.72;1812917;78;20983;-89
2022/05/10 05:02:01;;;;;;;5.12;2.47;;;;;;;27.20;26.74;101636.22;1812290;79;21184;-89
2022/05/10 05:04:27;;;;;;;3.92;2.60;;;;;;;26.45;25.76;101640.05;1795589;78;21066;-89
2022/05/10 05:06:53;;;;;;;6.70;2.37;;;;;;;25.90;26.22;101639.07;1795815;78;20856;-91
2022/05/10 05:09:19;;;;;;;3.72;2.08;;;;;;;25.59;25.88;101634.76;1795622;79;20849;-87
2022/05/10 05:11:45;;;;;;;4.37;1.90;;;;;;;25.68;26.28;101637.42;1795747;79;20862;-88
2022/05/10 05:14:11;;;;;;;5.70;2.12;;;;;;;25.78;26.52;101640.59;1795845;78;21074;-88
2022/05/10 05:16:37;;;;;;;4.35;1.85;;;;;;;25.71;25.97;101642.30;1795476;79;20956;-88
2022/05/10 05:19:04;;;;;;;3.30;1.85;;;;;;;25.24;25.93;101644.65;1795709;78;20976;-88
2022/05/10 05:21:30;;;;;;;5.50;1.90;;;;;;;25.14;26.15;101647.20;1795753;79;20921;-90
2022/05/10 05:23:56;;;;;;;6.28;2.10;;;;;;;25.68;25.86;101645.16;1795782;79;21015;-89
2022/05/10 05:26:22;;;;;;;5.75;1.90;;;;;;;26.61;26.53;101646.33;1795874;79;21036;-89
2022/05/10 05:28:48;;;;;;;7.00;2.05;;;;;;;27.69;25.08;101643.05;1795529;79;20927;-90
2022/05/10 05:31:15;;;;;;;3.58;1.40;;;;;;;27.87;24.21;101638.05;1795412;79;21011;-89
2022/05/10 05:33:41;;;;;;;3.35;1.57;;;;;;;28.30;23.56;101642.01;1795739;78;20912;-88
2022/05/10 05:36:07;;;;;;;2.37;1.70;;;;;;;27.51;23.11;101643.11;1795641;79;21306;-89
2022/05/10 05:38:33;;;;;;;2.40;1.60;;;;;;;27.81;23.83;101637.48;1769616;79;21031;-86
2022/05/10 05:41:01;;;;;;;3.50;1.45;;;;;;;27.79;22.38;101636.22;1795765;78;20950;-87
2022/05/10 05:43:28;;;;;;;2.02;1.82;;;;;;;27.03;22.27;101635.88;1795388;79;21039;-88
2022/05/10 05:45:54;;;;;;;4.12;1.70;;;;;;;27.04;22.34;101631.95;1795429;79;21690;-89
2022/05/10 05:48:20;;;;;;;3.42;1.60;;;;;;;27.15;23.66;101632.33;1795897;79;20972;-90
2022/05/10 05:50:47;;;;;;;3.35;1.50;;;;;;;28.47;23.16;101620.08;1795636;79;21099;-88
2022/05/10 05:53:13;;;;;;;3.15;1.50;;;;;;;29.68;21.31;101619.38;1795709;79;20952;-89
2022/05/10 05:55:41;;;;;;;2.87;1.90;;;;;;;29.01;20.60;101621.41;1795375;79;21030;-86
2022/05/10 05:58:08;;;;;;;2.83;1.72;;;;;;;29.37;21.66;101618.28;1795352;79;20992;-90
2022/05/10 06:00:35;;;;;;;6.75;2.20;;;;;;;29.31;20.43;101616.16;1772613;79;21594;-88
2022/05/10 06:03:01;;;;;;;2.10;1.52;;;;;;;29.83;20.62;101615.70;1812476;79;21001;-91
2022/05/10 06:05:27;;;;;;;4.55;1.75;;;;;;;31.06;21.34;101609.72;1812219;79;20959;-90
2022/05/10 06:07:53;;;;;;;1.85;1.65;;;;;;;32.61;20.65;101608.13;1812495;79;21015;-89
2022/05/10 06:10:20;;;;;;;2.40;1.52;;;;;;;33.11;19.31;101606.50;1781074;79;20959;-87
2022/05/10 06:12:46;;;;;;;2.05;1.67;;;;;;;32.99;18.03;101604.84;1812584;77;20960;-86
2022/05/10 06:15:16;;;;;;;3.67;1.50;;;;;;;31.77;17.98;101611.83;1812392;79;21166;-86
2022/05/10 06:17:45;;;;;;;2.85;1.60;;;;;;;31.04;18.58;101606.50;1812528;79;21011;-88
2022/05/10 06:20:16;;;;;;;3.25;1.80;;;;;;;31.30;19.39;101601.49;1812524;79;20912;-89
2022/05/10 06:22:45;;;;;;;3.13;1.50;;;;;;;32.57;18.51;101592.16;1812666;79;21023;-89
2022/05/10 06:25:18;;;;;;;6.92;1.80;;;;;;;33.54;17.91;101591.98;1812301;79;21054;-89
2022/05/10 06:27:46;;;;;;;3.10;1.87;;;;;;;33.64;17.85;101588.41;1812677;79;21785;-89
2022/05/10 06:30:13;;;;;;;3.80;1.67;;;;;;;34.48;17.47;101579.16;1812573;79;20924;-89
2022/05/10 06:32:40;;;;;;;3.65;1.70;;;;;;;35.26;16.81;101577.44;1812651;79;20998;-88
2022/05/10 06:35:08;;;;;;;1.60;1.50;;;;;;;35.64;16.43;101583.30;1812947;79;20935;-88
2022/05/10 06:40:20;;;;;;;3.27;1.70;;;;;;;35.09;15.32;101578.30;1812202;79;21011;-89
2022/05/10 06:42:46;;;;;;;2.83;1.50;;;;;;;32.91;15.80;101584.20;1812654;79;20956;-89
2022/05/10 06:45:16;;;;;;;3.83;1.75;;;;;;;33.27;16.59;101581.06;1812697;79;20978;-91
2022/05/10 06:47:46;;;;;;;4.40;1.50;;;;;;;34.16;16.36;101576.36;1812496;79;21449;-87
2022/05/10 06:50:17;;;;;;;1.40;1.30;;;;;;;34.79;15.72;101576.13;1812400;79;21464;-87
2022/05/10 06:52:43;;;;;;;1.87;1.42;;;;;;;34.59;14.56;101574.39;1795880;79;21121;-89
2022/05/10 06:55:11;;;;;;;1.60;1.50;;;;;;;35.07;15.41;101577.92;1795534;79;20991;-88
2022/05/10 06:57:37;;;;;;;1.40;1.30;;;;;;;35.62;14.85;101576.72;1795876;79;20976;-85
2022/05/10 07:00:07;;;;;;;5.58;1.57;;;;;;;35.21;14.68;101567.45;1807435;79;20968;-86
2022/05/10 07:02:34;;;;;;;1.95;1.70;;;;;;;35.45;14.82;101567.75;1809131;79;20979;-85
2022/05/10 07:05:00;;;;;;;2.40;1.47;;;;;;;35.81;14.55;101570.38;1808974;79;21203;-85
2022/05/10 07:07:27;;;;;;;1.92;1.50;;;;;;;35.69;14.33;101571.05;1809211;79;21037;-84
2022/05/10 07:09:54;;;;;;;2.47;1.70;;;;;;;35.90;14.60;101564.50;1808815;79;21491;-87
2022/05/10 07:12:21;;;;;;;1.92;1.60;;;;;;;35.59;14.08;101575.30;1808888;79;21124;-86
2022/05/10 07:14:48;;;;;;;2.47;1.60;;;;;;;34.94;14.12;101573.30;1809339;79;20999;-85
2022/05/10 07:17:14;;;;;;;1.98;1.42;;;;;;;34.74;14.12;101570.97;1808940;79;21955;-85
2022/05/10 07:19:41;;;;;;;2.30;1.00;;;;;;;35.11;14.22;101568.28;1808825;79;20952;-85
2022/05/10 07:22:07;;;;;;;6.08;1.70;;;;;;;34.01;14.18;101564.92;1809066;79;21579;-85
2022/05/10 07:24:33;;;;;;;4.25;1.40;;;;;;;33.24;14.66;101563.08;1809243;79;20960;-86
2022/05/10 07:26:59;;;;;;;3.83;1.50;;;;;;;33.46;14.58;101552.77;1809097;79;21015;-85
2022/05/10 07:29:25;;;;;;;1.60;1.50;;;;;;;34.37;14.47;101547.57;1809105;79;21598;-86
2022/05/10 07:31:53;;;;;;;6.30;1.47;;;;;;;34.37;14.47;101547.57;1809060;79;20976;-89
2022/05/10 07:34:19;;;;;;;3.85;1.85;;;;;;;35.26;14.18;101550.20;1808688;79;21519;-85
2022/05/10 07:36:45;;;;;;;2.25;1.40;;;;;;;35.79;13.76;101545.53;1808658;79;20959;-85
2022/05/10 07:39:16;;;;;;;1.20;1.10;;;;;;;35.98;13.38;101551.23;1809134;79;20892;-86
2022/05/10 07:41:43;;;;;;;1.50;1.33;;;;;;;35.02;13.12;101550.47;1809094;79;21211;-85
2022/05/10 07:44:11;;;;;;;1.35;1.07;;;;;;;33.61;13.21;101548.66;1809041;79;20976;-85
2022/05/10 07:46:37;;;;;;;1.32;1.22;;;;;;;31.72;13.85;101555.05;1808886;79;20983;-84
2022/05/10 07:49:04;;;;;;;7.83;1.67;;;;;;;31.13;14.92;101551.92;1808284;79;21476;-87
2022/05/10 07:51:30;;;;;;;1.50;1.20;;;;;;;31.71;15.08;101545.06;1806896;78;20957;-85
2022/05/10 07:53:56;;;;;;;2.35;1.27;;;;;;;32.39;14.78;101550.73;1807152;79;21802;-86
2022/05/10 07:56:24;;;;;;;1.87;1.17;;;;;;;31.78;14.43;101543.16;1806491;79;20941;-84
2022/05/10 07:58:51;;;;;;;7.75;1.60;;;;;;;31.65;14.53;101540.41;1810248;77;20984;-86
2022/05/10 08:01:17;;;;;;;2.90;1.25;;;;;;;30.21;14.50;101551.50;1817946;77;20930;-85
2022/05/10 08:03:43;;;;;;;9.48;1.72;;;;;;;29.68;14.88;101552.69;1817981;79;21460;-84
2022/05/10 08:06:09;;;;;;;1.40;1.30;;;;;;;29.46;14.81;101543.67;1818061;78;21022;-84
2022/05/10 08:08:36;;;;;;;3.30;1.40;;;;;;;29.76;15.46;101537.73;1817920;79;21007;-85
2022/05/10 08:11:06;;;;;;;4.33;1.20;;;;;;;30.93;15.34;101536.73;1817662;78;20972;-84
2022/05/10 08:13:33;;;;;;;2.52;1.00;;;;;;;31.23;14.57;101545.08;1817777;78;21020;-84
2022/05/10 08:16:00;;;;;;;5.35;1.05;;;;;;;29.98;14.55;101542.31;1817848;79;21039;-84
2022/05/10 08:18:28;;;;;;;3.95;1.17;;;;;;;28.55;14.95;101540.64;1818100;78;21619;-84
2022/05/10 08:20:59;;;;;;;3.02;1.15;;;;;;;27.18;15.83;101555.52;1817959;77;20957;-87
2022/05/10 08:23:30;;;;;;;5.87;1.40;;;;;;;26.27;16.38;101547.44;1817957;79;21011;-86
2022/05/10 08:25:58;;;;;;;1.40;1.00;;;;;;;26.63;16.57;101539.76;1818049;79;20972;-84
2022/05/10 08:28:28;;;;;;;2.22;1.35;;;;;;;26.73;16.35;101545.39;1797421;77;20913;-86
2022/05/10 08:30:56;;;;;;;1.82;1.10;;;;;;;26.51;16.29;101537.00;1817910;79;21132;-85
2022/05/10 08:33:29;;;;;;;3.10;1.50;;;;;;;27.10;17.07;101528.17;1818011;79;20957;-84
2022/05/10 08:35:57;;;;;;;2.60;1.00;;;;;;;28.67;16.46;101516.95;1818034;78;21472;-85
2022/05/10 08:38:26;;;;;;;2.40;1.30;;;;;;;30.21;16.23;101512.56;1817943;79;21432;-85
2022/05/10 08:41:25;;;;;;;2.58;1.20;;;;;;;30.81;15.20;101518.86;1817784;79;21504;-85
2022/05/10 08:44:19;;;;;;;2.90;1.12;;;;;;;30.00;14.86;101514.93;1692043;84;21088;-86
2022/05/10 08:46:50;;;;;;;3.92;1.57;;;;;;;29.41;14.89;101515.03;1641242;87;21049;-84
2022/05/10 08:49:22;;;;;;;1.90;1.25;;;;;;;28.74;15.25;101508.80;1638279;87;21518;-84
2022/05/10 08:51:48;;;;;;;4.08;1.20;;;;;;;28.87;15.21;101503.34;1641241;87;21096;-86
2022/05/10 08:54:14;;;;;;;1.95;1.20;;;;;;;28.96;15.35;101507.30;1641086;87;21125;-84
2022/05/10 08:56:48;;;;;;;1.30;0.95;;;;;;;28.05;15.18;101502.16;1640963;87;21066;-86
2022/05/10 08:59:31;;;;;;;2.02;1.10;;;;;;;27.30;15.75;101500.12;1641226;86;21125;-85
2022/05/10 09:02:15;;;;;;;1.80;1.25;;;;;;;27.93;16.01;101496.70;1589431;90;21018;-85
2022/05/10 09:05:09;;;;;;;2.47;1.25;;;;;;;27.50;16.08;101493.33;1592836;90;21032;-84
2022/05/10 09:07:53;;;;;;;6.97;1.32;;;;;;;28.41;16.60;101489.20;1592681;90;21151;-85
2022/05/10 09:10:43;;;;;;;1.00;0.90;;;;;;;29.60;15.88;101487.00;1592926;90;21882;-85
2022/05/10 09:13:14;;;;;;;1.67;1.17;;;;;;;30.46;15.57;101485.13;1522553;92;21534;-84
2022/05/10 09:15:54;;;;;;;2.12;1.30;;;;;;;29.99;14.98;101475.80;1575564;90;21086;-85
2022/05/10 09:18:37;;;;;;;4.45;1.55;;;;;;;29.04;15.30;101488.27;1588769;90;21142;-86
2022/05/10 09:21:23;;;;;;;2.15;1.17;;;;;;;29.71;15.73;101478.88;1590605;90;21093;-87
2022/05/10 09:24:18;;;;;;;2.33;1.20;;;;;;;30.12;15.39;101473.06;1565479;91;21918;-85
2022/05/10 09:26:48;;;;;;;1.67;1.00;;;;;;;29.13;15.25;101469.42;1541753;93;21096;-84
2022/05/10 09:29:39;;;;;;;2.55;1.10;;;;;;;28.62;16.24;101469.50;1507608;95;21136;-84
2022/05/10 09:35:23;;;;;;;2.45;1.40;;;;;;;29.60;15.83;101474.50;1521562;94;21073;-82
2022/05/10 09:37:59;;;;;;;3.22;1.12;;;;;;;29.50;15.48;101456.44;1521631;94;21233;-85
2022/05/10 09:40:32;;;;;;;3.33;1.57;;;;;;;29.01;15.19;101454.87;1521564;94;21141;-83
2022/05/10 09:43:22;;;;;;;3.33;1.22;;;;;;;27.59;15.79;101458.80;1516417;94;21070;-83
2022/05/10 09:46:14;;;;;;;2.55;1.30;;;;;;;26.68;16.06;101455.19;1469519;97;21068;-83
2022/05/10 09:48:43;;;;;;;2.85;0.93;;;;;;;25.99;16.56;101465.77;1469585;97;21517;-83
2022/05/10 09:54:21;;;;;;;3.62;1.07;;;;;;;24.67;17.51;101457.59;1489011;96;21618;-82
2022/05/10 09:56:54;;;;;;;2.08;1.10;;;;;;;25.34;17.85;101447.52;1487266;96;21551;-83
2022/05/10 09:59:45;;;;;;;2.22;1.32;;;;;;;25.42;17.52;101444.45;1420238;100;21655;-84
2022/05/10 10:02:28;;;;;;;5.40;1.05;;;;;;;25.31;17.72;101439.34;1411558;101;21080;-82
2022/05/10 10:04:54;;;;;;;6.72;1.20;;;;;;;25.36;17.83;101436.38;1436867;97;21252;-86
2022/05/10 10:07:25;;;;;;;3.98;1.00;;;;;;;25.75;17.67;101438.88;1476047;97;21518;-82
2022/05/10 10:09:58;;;;;;;5.58;1.42;;;;;;;25.26;17.51;101435.40;1475703;97;21153;-83
2022/05/10 10:12:46;;;;;;;2.90;1.00;;;;;;;24.53;17.73;101435.81;1475810;97;21088;-83
2022/05/10 10:15:42;;;;;;;3.77;1.30;;;;;;;24.22;18.27;101422.33;1475880;97;21177;-83
2022/05/10 10:18:12;;;;;;;2.75;1.20;;;;;;;24.43;18.54;101419.64;1475904;97;22108;-84
2022/05/10 10:20:50;;;;;;;4.83;1.05;;;;;;;24.29;17.97;101421.23;1475934;97;21509;-83
2022/05/10 10:23:33;;;;;;;7.22;1.67;;;;;;;23.71;18.74;101429.68;1412837;101;21058;-85
2022/05/10 10:26:07;;;;;;;1.82;1.25;;;;;;;23.58;18.94;101414.94;1445710;98;21160;-82
2022/05/10 10:28:41;;;;;;;3.45;1.00;;;;;;;23.38;19.41;101414.25;1401522;102;21133;-82
2022/05/10 10:31:18;;;;;;;2.60;1.05;;;;;;;23.23;19.27;101416.94;1401237;102;21143;-84
2022/05/10 10:34:01;;;;;;;4.42;1.30;;;;;;;23.06;19.43;101408.97;1401533;102;21042;-82
2022/05/10 10:36:41;;;;;;;4.72;1.30;;;;;;;23.29;19.72;101414.27;1401600;102;21127;-83
2022/05/10 10:39:22;;;;;;;2.60;1.00;;;;;;;23.74;19.68;101408.38;1401480;102;21179;-82
2022/05/10 10:42:11;;;;;;;8.85;1.27;;;;;;;23.75;19.40;101408.61;1365975;105;21241;-84
2022/05/10 10:44:45;;;;;;;1.85;1.10;;;;;;;23.42;18.96;101392.65;1366072;105;21665;-85
2022/05/10 10:47:34;;;;;;;4.40;1.30;;;;;;;23.50;19.67;101391.83;1347160;105;21108;-84
2022/05/10 10:50:31;;;;;;;6.90;1.55;;;;;;;23.58;19.25;101381.34;1348772;103;21178;-85
2022/05/10 10:53:00;;;;;;;6.47;1.12;;;;;;;23.29;19.06;101388.94;1332334;107;21145;-84
2022/05/10 10:55:49;;;;;;;6.47;1.40;;;;;;;23.02;19.41;101385.98;1334709;105;21177;-81
2022/05/10 10:58:42;;;;;;;3.47;1.40;;;;;;;22.81;19.36;101378.12;1348666;106;21305;-80
2022/05/10 11:01:22;;;;;;;4.33;1.22;;;;;;;22.73;19.57;101374.23;1359208;103;21135;-82
2022/05/10 11:04:12;;;;;;;9.63;1.40;;;;;;;22.55;19.41;101366.55;1360301;105;21166;-82
2022/05/10 11:06:52;;;;;;;2.62;1.25;;;;;;;22.33;19.69;101363.95;1360166;105;21669;-83
2022/05/10 11:09:52;;;;;;;6.92;1.17;;;;;;;22.41;19.95;101361.77;1360291;105;21132;-82
2022/05/10 11:12:45;;;;;;;2.87;1.30;;;;;;;22.80;20.61;101365.53;1360320;105;21963;-84
2022/05/10 11:15:35;;;;;;;6.95;1.40;;;;;;;23.38;20.13;101360.03;1360062;105;21210;-84
2022/05/10 11:18:30;;;;;;;3.95;1.25;;;;;;;23.41;19.46;101357.20;1323079;107;21243;-83
2022/05/10 11:21:41;;;;;;;6.65;1.10;;;;;;;23.11;19.19;101344.16;1425896;99;21082;-80
2022/05/10 11:24:25;;;;;;;6.58;1.30;;;;;;;23.18;19.18;101335.97;1440581;99;21143;-80
2022/05/10 11:27:17;;;;;;;4.20;1.10;;;;;;;23.82;19.50;101337.31;1480698;96;21210;-84
2022/05/10 11:30:08;;;;;;;4.25;1.20;;;;;;;24.15;18.83;101340.77;1479912;96;21117;-81
2022/05/10 11:33:11;;;;;;;3.90;1.17;;;;;;;23.52;18.78;101338.63;1480549;96;21077;-80
2022/05/10 11:36:24;;;;;;;2.85;1.52;;;;;;;22.56;19.05;101335.76;1480815;96;21125;-80
2022/05/10 11:39:13;;;;;;;1.52;1.10;;;;;;;21.66;19.88;101335.63;1480045;96;21089;-80
2022/05/10 11:42:04;;;;;;;2.40;1.20;;;;;;;21.91;20.61;101327.25;1478112;96;21432;-80
2022/05/10 11:44:43;;;;;;;2.55;1.17;;;;;;;22.65;20.29;101327.78;1502840;93;21031;-81
2022/05/10 11:47:49;;;;;;;3.05;1.10;;;;;;;23.41;19.49;101311.23;1516797;94;21031;-80
2022/05/10 11:54:02;;;;;;;6.42;1.27;;;;;;;24.04;18.63;101293.55;1537073;93;21015;-79
2022/05/10 11:56:35;;;;;;;4.45;1.22;;;;;;;23.97;18.81;101301.52;1555688;92;21124;-78
2022/05/10 11:59:14;;;;;;;2.25;1.07;;;;;;;23.41;18.80;101305.73;1505832;94;21184;-81
2022/05/10 12:01:45;;;;;;;2.62;1.35;;;;;;;22.98;18.94;101296.25;1439138;99;21733;-81
2022/05/10 12:04:44;;;;;;;3.12;1.00;;;;;;;22.40;19.14;101292.87;1414078;100;21066;-84
2022/05/10 12:07:25;;;;;;;2.25;1.17;;;;;;;22.68;19.90;101296.11;1386689;103;21094;-82
2022/05/10 12:09:59;;;;;;;3.55;1.20;;;;;;;23.41;19.38;101278.80;1421119;101;21232;-85
2022/05/10 12:12:39;;;;;;;3.40;0.88;;;;;;;23.74;18.96;101275.68;1421031;101;21157;-83
2022/05/10 12:21:54;;;;;;;2.50;1.12;;;;;;;23.72;19.58;101268.89;1426172;100;21222;-81